Time;durP1;ratioP1;P1;durP2;ratioP2;P2;SDS_P1;SDS_P2;PMS_P1;PMS_P2;Temp;Humidity;BMP_temperature;BMP_pressure;BME280_temperature;BME280_humidity;BME280_pressure;Samples;Min_cycle;Max_cycle;Signal;HPM_P1;HPM_P2
2021/01/29 00:01:21;;;;;;;0.40;0.40;;;21.70;50.60;;;;;;4933809;28;20420;-70
2021/01/29 00:03:42;;;;;;;0.43;0.30;;;21.70;50.50;;;;;;4933909;28;20415;-70
2021/01/29 00:06:04;;;;;;;0.60;0.60;;;21.70;50.40;;;;;;4915623;28;20052;-71
2021/01/29 00:08:26;;;;;;;0.30;0.30;;;21.70;50.60;;;;;;4934107;28;20092;-69
2021/01/29 00:10:48;;;;;;;1.90;0.38;;;21.70;50.60;;;;;;4933942;28;20052;-69
2021/01/29 00:13:12;;;;;;;0.40;0.40;;;21.70;50.60;;;;;;4934187;28;20050;-70
2021/01/29 00:15:34;;;;;;;0.40;0.40;;;21.70;50.80;;;;;;4933535;28;20047;-71
2021/01/29 00:17:55;;;;;;;0.45;0.43;;;21.70;50.90;;;;;;4933673;28;20052;-70
2021/01/29 00:20:24;;;;;;;0.93;0.30;;;21.60;50.90;;;;;;4933958;28;20044;-70
2021/01/29 00:22:46;;;;;;;0.38;0.38;;;21.60;50.90;;;;;;4933880;28;20071;-70
2021/01/29 00:25:10;;;;;;;0.50;0.47;;;21.60;50.90;;;;;;4945991;28;20051;-70
2021/01/29 00:27:31;;;;;;;0.95;0.38;;;21.60;51.00;;;;;;4953970;28;20104;-70
2021/01/29 00:29:52;;;;;;;0.40;0.40;;;21.60;51.50;;;;;;4953636;28;20072;-70
2021/01/29 00:32:14;;;;;;;0.30;0.30;;;21.60;51.00;;;;;;4953726;28;20051;-71
2021/01/29 00:34:35;;;;;;;0.45;0.43;;;21.60;51.10;;;;;;4953528;27;20047;-70
2021/01/29 00:36:56;;;;;;;0.35;0.30;;;21.60;51.20;;;;;;4955395;27;20059;-70
2021/01/29 00:39:18;;;;;;;0.40;0.40;;;21.60;51.10;;;;;;4940001;27;20047;-70
2021/01/29 00:41:40;;;;;;;0.30;0.30;;;21.60;51.10;;;;;;4958080;27;20583;-71
2021/01/29 00:44:02;;;;;;;0.30;0.30;;;21.60;51.20;;;;;;4958268;27;20047;-70
2021/01/29 00:46:23;;;;;;;0.43;0.43;;;21.60;51.10;;;;;;4958430;27;20051;-70
2021/01/29 00:48:46;;;;;;;0.60;0.60;;;21.60;50.90;;;;;;4958142;27;20122;-70
2021/01/29 00:51:08;;;;;;;0.40;0.40;;;21.70;50.90;;;;;;4957239;27;20058;-70
2021/01/29 00:53:30;;;;;;;0.40;0.40;;;21.70;51.30;;;;;;4957006;27;20047;-69
2021/01/29 00:55:51;;;;;;;0.50;0.50;;;21.60;51.00;;;;;;4942475;27;20461;-70
2021/01/29 00:58:13;;;;;;;0.40;0.40;;;21.60;51.10;;;;;;4937703;28;20052;-70
2021/01/29 01:00:34;;;;;;;0.30;0.30;;;21.60;51.40;;;;;;4937411;28;20078;-71
2021/01/29 01:02:56;;;;;;;0.40;0.40;;;21.50;51.30;;;;;;4937623;28;20036;-70
2021/01/29 01:05:19;;;;;;;0.40;0.40;;;21.60;51.00;;;;;;4937359;28;20050;-70
2021/01/29 01:07:41;;;;;;;0.28;0.28;;;21.60;50.90;;;;;;4937165;28;20048;-70
2021/01/29 01:10:04;;;;;;;0.40;0.40;;;21.60;50.90;;;;;;4937259;28;20040;-70
2021/01/29 01:12:25;;;;;;;0.43;0.35;;;21.60;50.70;;;;;;4937182;28;20047;-70
2021/01/29 01:14:47;;;;;;;0.22;0.22;;;21.70;51.40;;;;;;4936827;28;20100;-70
2021/01/29 01:17:08;;;;;;;0.30;0.30;;;21.70;50.70;;;;;;4936942;28;20082;-70
2021/01/29 01:19:30;;;;;;;0.22;0.22;;;21.70;50.70;;;;;;4937103;28;20051;-70
2021/01/29 01:21:52;;;;;;;0.43;0.40;;;21.70;50.60;;;;;;4936786;28;20494;-69
2021/01/29 01:24:13;;;;;;;0.32;0.30;;;21.70;50.80;;;;;;4941241;27;20047;-70
2021/01/29 01:26:34;;;;;;;0.40;0.30;;;21.70;50.70;;;;;;4956805;27;20049;-70
2021/01/29 01:28:56;;;;;;;1.08;0.52;;;21.70;50.90;;;;;;4956350;27;20043;-70
2021/01/29 01:31:17;;;;;;;0.40;0.30;;;21.70;50.90;;;;;;4956665;27;20043;-70
2021/01/29 01:33:38;;;;;;;0.20;0.20;;;21.70;50.70;;;;;;4956954;27;20047;-71
2021/01/29 01:36:00;;;;;;;0.30;0.30;;;21.60;50.20;;;;;;4957765;27;20055;-71
2021/01/29 01:38:21;;;;;;;0.30;0.30;;;21.60;49.60;;;;;;4940201;27;20078;-70
2021/01/29 01:40:46;;;;;;;1.15;0.40;;;21.60;49.60;;;;;;4958323;27;20075;-72
2021/01/29 01:43:07;;;;;;;0.80;0.40;;;21.60;49.60;;;;;;4958063;27;20051;-70
2021/01/29 01:45:29;;;;;;;1.40;0.30;;;21.60;49.50;;;;;;4957535;27;20050;-70
2021/01/29 01:47:50;;;;;;;0.40;0.30;;;21.70;49.10;;;;;;4955894;27;20186;-70
2021/01/29 01:50:21;;;;;;;0.28;0.28;;;21.70;48.60;;;;;;4956345;27;20050;-70
2021/01/29 01:52:44;;;;;;;0.40;0.40;;;21.70;49.00;;;;;;4955927;27;20051;-70
2021/01/29 01:55:15;;;;;;;0.30;0.30;;;21.80;49.10;;;;;;4947994;27;20039;-70
2021/01/29 01:57:39;;;;;;;0.30;0.30;;;21.80;48.40;;;;;;4935986;28;20411;-70
2021/01/29 02:00:11;;;;;;;0.22;0.22;;;21.80;47.90;;;;;;4936144;28;20044;-70
2021/01/29 02:02:35;;;;;;;1.48;0.30;;;21.90;48.50;;;;;;4936057;28;20077;-70
2021/01/29 02:05:00;;;;;;;0.30;0.30;;;21.90;48.30;;;;;;4936088;28;20083;-70
2021/01/29 02:07:42;;;;;;;0.30;0.30;;;21.90;47.70;;;;;;4935890;28;20096;-69
2021/01/29 02:10:05;;;;;;;0.63;0.40;;;21.90;47.60;;;;;;4935792;28;20427;-69
2021/01/29 02:12:26;;;;;;;0.40;0.40;;;21.90;47.80;;;;;;4935829;28;20484;-70
2021/01/29 02:14:47;;;;;;;1.65;0.32;;;21.90;47.40;;;;;;4935692;28;20056;-70
2021/01/29 02:17:37;;;;;;;0.28;0.28;;;22.00;47.90;;;;;;4935769;28;20051;-70
2021/01/29 02:20:10;;;;;;;0.20;0.20;;;22.00;47.50;;;;;;4935878;28;20323;-70
2021/01/29 02:23:20;;;;;;;0.68;0.30;;;22.00;47.60;;;;;;4935676;28;20070;-70
2021/01/29 02:26:17;;;;;;;0.30;0.30;;;21.90;46.70;;;;;;4876811;28;20049;-70
2021/01/29 02:29:12;;;;;;;0.30;0.30;;;21.90;47.10;;;;;;4945646;27;20503;-70
2021/01/29 02:31:51;;;;;;;1.52;0.70;;;21.90;47.20;;;;;;4937814;27;20128;-71
2021/01/29 02:34:57;;;;;;;0.75;0.40;;;21.90;46.90;;;;;;4956525;27;20392;-70
2021/01/29 02:37:33;;;;;;;0.52;0.40;;;21.90;47.00;;;;;;4916586;27;20054;-73
2021/01/29 02:40:05;;;;;;;0.55;0.30;;;21.90;46.50;;;;;;4955809;27;20450;-70
2021/01/29 02:42:45;;;;;;;2.40;0.57;;;21.90;46.50;;;;;;4955317;27;20039;-70
2021/01/29 02:45:27;;;;;;;0.60;0.50;;;21.90;46.90;;;;;;4955376;27;20047;-70
2021/01/29 02:48:17;;;;;;;0.40;0.40;;;21.90;46.30;;;;;;4936754;27;20058;-70
2021/01/29 02:51:13;;;;;;;0.30;0.30;;;21.90;46.10;;;;;;4954842;27;20057;-70
2021/01/29 02:53:51;;;;;;;1.13;0.60;;;21.90;46.20;;;;;;4933147;27;20046;-69
2021/01/29 02:56:24;;;;;;;0.30;0.30;;;21.90;47.40;;;;;;4937053;27;20496;-70
2021/01/29 02:58:59;;;;;;;1.23;0.30;;;21.90;46.60;;;;;;4934264;28;20077;-70
2021/01/29 03:01:25;;;;;;;1.88;0.57;;;21.90;46.60;;;;;;4935039;28;20039;-70
2021/01/29 03:03:57;;;;;;;0.63;0.40;;;21.90;46.00;;;;;;4935012;28;20082;-70
2021/01/29 03:06:36;;;;;;;0.73;0.60;;;21.90;46.40;;;;;;4934739;28;20047;-70
2021/01/29 03:09:10;;;;;;;0.50;0.50;;;21.90;45.60;;;;;;4934606;28;20050;-70
2021/01/29 03:11:36;;;;;;;0.70;0.45;;;21.80;45.90;;;;;;4934507;28;20442;-70
2021/01/29 03:14:17;;;;;;;1.20;0.63;;;21.80;46.20;;;;;;4934442;28;20515;-70
2021/01/29 03:16:52;;;;;;;0.80;0.70;;;21.80;46.60;;;;;;4934660;28;20062;-70
2021/01/29 03:19:24;;;;;;;1.65;0.90;;;21.80;45.80;;;;;;4934782;28;20044;-70
2021/01/29 03:21:51;;;;;;;0.50;0.30;;;21.80;45.70;;;;;;4934382;28;20057;-70
2021/01/29 03:24:24;;;;;;;0.77;0.40;;;21.80;46.60;;;;;;4939217;27;20055;-70
2021/01/29 03:26:55;;;;;;;0.43;0.40;;;21.80;46.20;;;;;;4955828;27;20051;-70
2021/01/29 03:29:19;;;;;;;0.90;0.50;;;21.80;45.80;;;;;;4955269;27;20104;-72
2021/01/29 03:31:44;;;;;;;0.40;0.40;;;21.80;45.80;;;;;;4956061;27;20051;-73
2021/01/29 03:34:12;;;;;;;0.80;0.45;;;21.80;46.30;;;;;;4955617;27;20100;-70
2021/01/29 03:36:41;;;;;;;0.73;0.38;;;21.80;46.00;;;;;;4954932;27;20043;-70
2021/01/29 03:39:24;;;;;;;0.35;0.35;;;21.80;45.90;;;;;;4935801;27;20495;-70
2021/01/29 03:41:54;;;;;;;1.48;0.50;;;21.80;45.90;;;;;;4953759;27;20046;-70
2021/01/29 03:45:00;;;;;;;0.88;0.60;;;21.80;46.00;;;;;;4953989;27;20101;-70
2021/01/29 03:47:33;;;;;;;0.43;0.43;;;21.80;45.50;;;;;;4863338;27;20060;-70
2021/01/29 03:50:10;;;;;;;0.60;0.30;;;21.80;45.50;;;;;;4954099;27;20058;-70
2021/01/29 03:52:56;;;;;;;0.57;0.45;;;21.80;46.00;;;;;;4954057;27;20058;-70
2021/01/29 03:55:18;;;;;;;0.52;0.38;;;21.80;46.00;;;;;;4944143;27;20040;-70
2021/01/29 03:57:58;;;;;;;2.00;0.47;;;21.80;45.90;;;;;;4915964;28;20048;-70
2021/01/29 04:00:36;;;;;;;2.00;0.70;;;21.90;45.90;;;;;;4934161;28;20052;-70
2021/01/29 04:03:21;;;;;;;1.42;0.65;;;21.90;46.30;;;;;;4934120;28;20054;-70
2021/01/29 04:05:57;;;;;;;0.88;0.57;;;21.90;46.00;;;;;;4934204;28;20048;-70
2021/01/29 04:08:35;;;;;;;1.00;0.60;;;21.90;45.90;;;;;;4934481;28;20052;-70
2021/01/29 04:11:00;;;;;;;0.80;0.57;;;21.90;45.80;;;;;;4934377;28;20056;-70
2021/01/29 04:13:34;;;;;;;2.25;0.82;;;22.00;45.80;;;;;;4933993;28;20048;-69
2021/01/29 04:15:59;;;;;;;0.50;0.50;;;22.00;45.20;;;;;;4934068;28;20520;-70
2021/01/29 04:18:34;;;;;;;1.65;0.90;;;22.00;45.70;;;;;;4934633;28;20047;-71
2021/01/29 04:21:20;;;;;;;1.42;0.80;;;22.00;45.20;;;;;;4934867;28;20108;-71
2021/01/29 04:23:44;;;;;;;0.95;0.50;;;22.00;45.30;;;;;;4933806;28;20136;-70
2021/01/29 04:26:23;;;;;;;1.20;0.57;;;22.00;45.20;;;;;;4933773;28;20434;-70
2021/01/29 04:28:58;;;;;;;2.58;0.60;;;22.00;45.20;;;;;;4945089;28;20073;-70
2021/01/29 04:31:22;;;;;;;2.50;0.77;;;22.00;45.10;;;;;;4953447;28;20050;-70
2021/01/29 04:33:49;;;;;;;0.63;0.43;;;22.00;44.40;;;;;;4953454;28;20078;-70
2021/01/29 04:36:14;;;;;;;1.90;0.52;;;21.90;45.00;;;;;;4953338;28;20092;-70
2021/01/29 04:38:44;;;;;;;5.18;0.60;;;21.90;45.60;;;;;;4953401;28;20530;-70
2021/01/29 04:41:16;;;;;;;2.42;0.70;;;21.90;45.60;;;;;;4953525;28;20051;-70
2021/01/29 04:43:43;;;;;;;1.73;0.55;;;21.90;45.10;;;;;;4953634;28;20042;-70
2021/01/29 04:46:33;;;;;;;1.90;0.52;;;21.90;45.60;;;;;;4935139;28;20059;-70
2021/01/29 04:49:32;;;;;;;2.67;1.00;;;21.90;45.30;;;;;;4953601;28;20130;-69
2021/01/29 04:52:06;;;;;;;2.47;0.77;;;21.90;44.80;;;;;;4953384;27;20047;-70
2021/01/29 04:55:01;;;;;;;2.40;0.90;;;21.90;45.10;;;;;;4950589;28;20047;-70
2021/01/29 04:57:41;;;;;;;7.05;1.30;;;21.80;45.10;;;;;;4933719;28;20074;-70
2021/01/29 05:00:25;;;;;;;2.35;0.90;;;21.80;44.10;;;;;;4933807;28;20044;-70
2021/01/29 05:03:20;;;;;;;2.15;0.70;;;21.70;44.60;;;;;;4933740;28;20104;-70
2021/01/29 05:06:00;;;;;;;3.45;0.82;;;21.70;44.10;;;;;;4933503;28;20100;-70
2021/01/29 05:08:44;;;;;;;2.97;1.00;;;21.70;44.70;;;;;;4933600;28;20051;-70
2021/01/29 05:11:13;;;;;;;5.22;1.33;;;21.70;44.80;;;;;;4933639;28;20048;-70
2021/01/29 05:13:47;;;;;;;3.40;1.08;;;21.70;44.80;;;;;;4933517;28;20521;-69
2021/01/29 05:16:17;;;;;;;3.38;1.35;;;21.80;44.70;;;;;;4934362;28;20105;-70
2021/01/29 05:18:50;;;;;;;3.50;0.93;;;21.80;44.20;;;;;;4934970;28;20100;-70
2021/01/29 05:21:33;;;;;;;5.28;1.00;;;21.70;44.20;;;;;;4935188;28;20047;-71
2021/01/29 05:24:06;;;;;;;2.42;1.10;;;21.70;43.60;;;;;;4940327;27;20048;-71
2021/01/29 05:26:55;;;;;;;5.32;1.70;;;21.70;43.10;;;;;;4957800;27;20120;-70
2021/01/29 05:29:31;;;;;;;5.07;0.98;;;21.70;43.90;;;;;;4956891;27;20095;-69
2021/01/29 05:32:30;;;;;;;2.65;0.70;;;21.70;44.70;;;;;;4956562;27;20524;-70
2021/01/29 05:35:18;;;;;;;5.15;2.58;;;21.70;44.40;;;;;;4934725;28;20104;-70
2021/01/29 05:37:58;;;;;;;3.10;1.00;;;21.70;43.40;;;;;;4918614;28;20067;-70
2021/01/29 05:40:42;;;;;;;5.10;1.23;;;21.80;44.50;;;;;;4936566;28;20457;-70
2021/01/29 05:43:21;;;;;;;3.80;1.02;;;21.80;44.30;;;;;;4936636;28;20040;-70
2021/01/29 05:45:58;;;;;;;3.13;0.90;;;21.80;43.80;;;;;;4936765;28;20051;-70
2021/01/29 05:48:20;;;;;;;3.00;1.30;;;21.80;43.90;;;;;;4936525;28;20052;-70
2021/01/29 05:51:10;;;;;;;2.85;1.23;;;21.80;43.70;;;;;;4936440;28;20495;-69
2021/01/29 05:54:02;;;;;;;2.47;1.10;;;21.80;43.80;;;;;;4936433;28;20051;-71
2021/01/29 05:57:05;;;;;;;4.65;1.35;;;21.80;43.40;;;;;;4918197;28;20047;-70
2021/01/29 05:59:37;;;;;;;7.65;2.03;;;21.90;43.70;;;;;;4894514;28;20063;-70
2021/01/29 06:02:23;;;;;;;4.18;0.90;;;21.90;42.90;;;;;;4931123;28;20052;-69
2021/01/29 06:05:01;;;;;;;2.10;0.95;;;21.80;43.60;;;;;;4936214;28;20100;-69
2021/01/29 06:07:41;;;;;;;3.42;1.17;;;21.80;43.90;;;;;;4936192;28;20504;-70
2021/01/29 06:10:21;;;;;;;5.47;1.23;;;21.80;43.40;;;;;;4918028;28;20052;-71
2021/01/29 06:13:01;;;;;;;4.03;1.23;;;21.80;43.30;;;;;;4918950;28;20096;-70
2021/01/29 06:16:09;;;;;;;6.47;1.30;;;21.80;43.70;;;;;;4919648;28;20565;-71
2021/01/29 06:18:55;;;;;;;2.63;1.00;;;21.80;43.60;;;;;;4937065;28;20112;-70
2021/01/29 06:22:06;;;;;;;9.70;1.38;;;21.80;43.00;;;;;;4936904;28;20052;-71
2021/01/29 06:24:49;;;;;;;5.80;1.30;;;21.70;42.70;;;;;;4918511;27;20043;-69
2021/01/29 06:27:48;;;;;;;3.75;1.40;;;21.70;42.70;;;;;;4956021;27;20048;-70
2021/01/29 06:30:47;;;;;;;2.08;0.90;;;21.70;43.30;;;;;;4935867;28;20488;-70
2021/01/29 06:33:41;;;;;;;0.73;0.70;;;21.70;43.30;;;;;;4941900;27;20050;-70
2021/01/29 06:36:24;;;;;;;5.95;1.25;;;21.70;43.60;;;;;;4955592;27;20039;-70
2021/01/29 06:39:11;;;;;;;4.25;1.08;;;21.70;43.40;;;;;;4955635;27;20047;-69
2021/01/29 06:41:52;;;;;;;8.80;1.25;;;21.70;42.80;;;;;;4955588;27;20047;-70
2021/01/29 06:44:35;;;;;;;6.57;1.45;;;21.70;43.00;;;;;;4954740;27;20423;-70
2021/01/29 06:47:34;;;;;;;3.85;1.10;;;21.70;43.00;;;;;;4955559;27;20046;-70
2021/01/29 06:50:23;;;;;;;3.97;1.02;;;21.60;43.30;;;;;;4955437;27;20249;-69
2021/01/29 06:53:03;;;;;;;2.47;0.90;;;21.60;43.10;;;;;;4954936;27;20551;-70
2021/01/29 06:56:08;;;;;;;2.63;0.93;;;21.60;43.90;;;;;;4943045;27;20405;-70
2021/01/29 06:59:10;;;;;;;2.10;0.88;;;21.70;43.60;;;;;;4935161;28;20055;-70
2021/01/29 07:01:58;;;;;;;3.08;1.05;;;21.70;43.30;;;;;;4957765;27;20461;-69
2021/01/29 07:04:42;;;;;;;2.70;1.23;;;21.80;44.10;;;;;;4957457;27;20104;-70
2021/01/29 07:07:21;;;;;;;2.63;0.73;;;21.90;43.90;;;;;;4955779;27;20557;-69
2021/01/29 07:10:02;;;;;;;2.58;0.65;;;22.00;43.80;;;;;;4973222;27;20053;-70
2021/01/29 07:12:44;;;;;;;3.50;1.08;;;22.10;43.40;;;;;;4975226;27;20196;-70
2021/01/29 07:15:23;;;;;;;5.25;0.90;;;22.20;43.10;;;;;;4957208;27;20093;-71
2021/01/29 07:18:29;;;;;;;9.15;1.30;;;22.40;42.90;;;;;;4976073;27;20058;-72
2021/01/29 07:21:21;;;;;;;10.00;1.27;;;22.40;42.70;;;;;;4948340;27;20529;-71
2021/01/29 07:24:03;;;;;;;3.58;0.90;;;22.50;42.50;;;;;;4954785;27;20047;-71
2021/01/29 07:26:46;;;;;;;14.75;1.70;;;22.50;42.30;;;;;;4934656;28;20047;-70
2021/01/29 07:29:27;;;;;;;3.28;0.93;;;22.60;42.00;;;;;;4937265;27;20044;-70
2021/01/29 07:32:14;;;;;;;9.65;1.17;;;22.60;41.90;;;;;;4935031;28;20040;-71
2021/01/29 07:34:53;;;;;;;5.78;0.80;;;22.70;41.80;;;;;;4953167;27;20449;-71
2021/01/29 07:37:20;;;;;;;5.63;1.23;;;22.70;41.60;;;;;;4935994;27;20049;-71
2021/01/29 07:40:09;;;;;;;4.32;1.20;;;22.80;41.50;;;;;;4934572;28;20043;-70
2021/01/29 07:43:00;;;;;;;2.03;0.70;;;22.80;41.30;;;;;;4934464;28;20506;-71
2021/01/29 07:45:48;;;;;;;1.58;1.00;;;22.80;41.20;;;;;;4934211;28;20446;-71
2021/01/29 07:48:41;;;;;;;2.33;0.70;;;22.90;41.10;;;;;;4934705;28;20051;-73
2021/01/29 07:51:25;;;;;;;5.25;0.90;;;22.90;40.90;;;;;;4934358;28;20496;-71
2021/01/29 07:54:08;;;;;;;1.55;0.70;;;23.00;40.90;;;;;;4934463;28;20048;-70
2021/01/29 07:56:53;;;;;;;3.20;1.00;;;23.00;40.80;;;;;;4934728;27;20047;-71
2021/01/29 07:59:49;;;;;;;4.40;1.13;;;23.00;40.70;;;;;;4973978;27;20511;-71
2021/01/29 08:02:30;;;;;;;5.20;1.23;;;23.00;40.70;;;;;;4972098;27;20483;-71
2021/01/29 08:05:20;;;;;;;11.70;1.25;;;23.10;40.70;;;;;;4973080;27;20043;-71
2021/01/29 08:07:47;;;;;;;5.10;1.20;;;23.10;40.50;;;;;;4973773;27;20403;-71
2021/01/29 08:10:26;;;;;;;4.53;1.70;;;23.20;40.60;;;;;;4949912;27;20259;-71
2021/01/29 08:13:01;;;;;;;4.15;1.08;;;23.20;40.50;;;;;;4920277;28;20127;-71
2021/01/29 08:15:40;;;;;;;5.03;0.93;;;23.20;40.40;;;;;;4947014;27;20093;-72
2021/01/29 08:18:28;;;;;;;4.35;1.92;;;23.30;40.30;;;;;;4950645;28;20043;-72
2021/01/29 08:21:31;;;;;;;3.30;1.00;;;23.30;40.20;;;;;;4936659;28;20043;-71
2021/01/29 08:24:27;;;;;;;3.13;0.80;;;23.40;40.00;;;;;;4944297;28;20075;-71
2021/01/29 08:27:19;;;;;;;1.25;0.68;;;23.40;39.90;;;;;;4945691;28;20043;-71
2021/01/29 08:30:12;;;;;;;3.72;0.90;;;23.40;39.70;;;;;;4943703;28;20047;-71
2021/01/29 08:32:51;;;;;;;2.78;0.90;;;23.50;39.60;;;;;;4944635;28;20047;-72
2021/01/29 08:35:38;;;;;;;1.73;0.80;;;23.50;39.50;;;;;;4942769;28;20082;-71
2021/01/29 08:38:21;;;;;;;2.28;1.00;;;23.50;39.50;;;;;;4942441;28;20043;-71
2021/01/29 08:41:18;;;;;;;4.60;1.23;;;23.60;39.30;;;;;;4943345;28;20243;-71
2021/01/29 08:44:01;;;;;;;1.30;0.68;;;23.60;39.10;;;;;;4948135;28;20050;-70
2021/01/29 08:46:49;;;;;;;4.78;1.15;;;23.70;39.00;;;;;;4944520;28;20386;-70
2021/01/29 08:49:32;;;;;;;3.03;0.80;;;23.70;38.90;;;;;;4943531;28;20047;-72
2021/01/29 08:51:59;;;;;;;5.22;1.27;;;23.70;38.80;;;;;;4929168;28;20044;-69
2021/01/29 08:54:52;;;;;;;2.78;0.80;;;23.80;38.70;;;;;;4945260;28;20050;-69
2021/01/29 08:57:37;;;;;;;4.43;1.08;;;23.80;38.70;;;;;;4945372;27;20058;-70
2021/01/29 09:00:00;;;;;;;2.13;0.73;;;23.80;38.80;;;;;;4883036;28;20036;-70
2021/01/29 09:02:53;;;;;;;1.90;1.02;;;23.90;38.70;;;;;;4946716;27;20051;-69
2021/01/29 09:05:23;;;;;;;2.78;1.15;;;23.90;38.50;;;;;;4945842;27;20468;-71
2021/01/29 09:07:46;;;;;;;3.45;0.77;;;23.90;38.60;;;;;;4937826;28;20731;-70
2021/01/29 09:10:13;;;;;;;2.45;0.77;;;23.90;38.60;;;;;;4937057;28;20410;-71
2021/01/29 09:12:37;;;;;;;3.17;1.17;;;23.90;38.50;;;;;;4938214;28;20108;-71
2021/01/29 09:15:07;;;;;;;4.05;1.08;;;24.00;38.50;;;;;;4938464;27;20059;-70
2021/01/29 09:17:54;;;;;;;3.65;1.00;;;24.00;38.50;;;;;;4947088;27;20050;-70
2021/01/29 09:20:35;;;;;;;3.72;1.08;;;24.00;38.30;;;;;;4928438;27;20052;-70
2021/01/29 09:23:06;;;;;;;;;;;24.10;38.40;;;;;;4945417;27;20040;-70
2021/01/29 09:25:48;;;;;;;1.27;0.75;;;24.10;38.30;;;;;;4926371;27;19920;-70
2021/01/29 09:28:38;;;;;;;3.50;1.35;;;24.00;38.30;;;;;;4950963;27;20141;-70
2021/01/29 09:31:06;;;;;;;2.83;1.00;;;24.10;38.10;;;;;;4945289;27;20484;-70
2021/01/29 09:33:44;;;;;;;3.38;0.70;;;24.20;37.70;;;;;;4942947;27;20422;-71
2021/01/29 09:36:18;;;;;;;2.58;0.88;;;24.20;38.30;;;;;;4946414;27;20130;-70
2021/01/29 09:39:08;;;;;;;5.35;1.17;;;24.20;38.20;;;;;;4916148;28;20055;-70
2021/01/29 09:41:36;;;;;;;3.72;1.55;;;24.20;37.90;;;;;;4934493;28;20293;-70
2021/01/29 09:44:21;;;;;;;2.67;0.98;;;24.20;37.80;;;;;;4934777;28;20051;-71
2021/01/29 09:46:45;;;;;;;4.70;1.00;;;24.20;37.80;;;;;;4934072;28;20055;-72
2021/01/29 09:49:19;;;;;;;4.35;0.95;;;24.20;37.90;;;;;;4934544;28;20048;-70
2021/01/29 09:52:20;;;;;;;3.13;1.23;;;24.20;37.70;;;;;;4934131;28;20112;-71
2021/01/29 09:55:12;;;;;;;4.65;1.40;;;24.20;37.70;;;;;;4944540;27;20130;-72
2021/01/29 09:57:42;;;;;;;5.07;1.10;;;24.20;37.80;;;;;;4942102;27;20225;-70
2021/01/29 10:00:23;;;;;;;4.15;1.20;;;24.20;37.90;;;;;;4943109;27;20131;-72
2021/01/29 10:03:03;;;;;;;3.90;1.38;;;24.20;37.70;;;;;;4947090;27;20059;-73
2021/01/29 10:05:52;;;;;;;2.10;0.88;;;24.20;37.70;;;;;;4939022;27;20049;-70
2021/01/29 10:08:30;;;;;;;3.40;1.77;;;24.30;37.70;;;;;;4938625;27;20051;-70
2021/01/29 10:11:10;;;;;;;3.90;0.82;;;24.20;37.70;;;;;;4949287;27;20043;-71
2021/01/29 10:13:40;;;;;;;3.63;1.20;;;24.20;37.60;;;;;;4941463;27;20122;-71
2021/01/29 10:16:19;;;;;;;10.88;1.55;;;24.30;37.70;;;;;;4948029;27;20898;-71
2021/01/29 10:18:49;;;;;;;3.45;1.02;;;24.30;37.50;;;;;;4947234;27;20051;-73
2021/01/29 10:21:17;;;;;;;3.88;1.33;;;24.30;37.70;;;;;;4943519;27;20096;-72
2021/01/29 10:23:54;;;;;;;3.25;1.00;;;24.40;37.50;;;;;;4943858;27;20079;-73
2021/01/29 10:26:36;;;;;;;3.30;1.40;;;24.40;37.30;;;;;;4945584;27;20259;-71
2021/01/29 10:29:22;;;;;;;4.65;0.88;;;24.40;37.30;;;;;;4949472;27;20085;-72
2021/01/29 10:32:05;;;;;;;2.05;0.93;;;24.50;37.20;;;;;;4934691;28;20064;-72
2021/01/29 10:34:55;;;;;;;2.55;1.10;;;24.50;37.20;;;;;;4942030;27;20206;-71
2021/01/29 10:37:36;;;;;;;3.92;1.13;;;24.40;37.20;;;;;;4925919;27;20055;-70
2021/01/29 10:40:00;;;;;;;3.42;1.15;;;24.40;37.20;;;;;;4938069;27;20040;-70
2021/01/29 10:42:31;;;;;;;6.60;1.73;;;24.40;37.20;;;;;;4949280;27;20078;-71
2021/01/29 10:44:56;;;;;;;3.50;1.10;;;24.50;37.20;;;;;;4946596;27;20107;-70
2021/01/29 10:48:00;;;;;;;4.35;1.20;;;24.40;37.20;;;;;;4939827;27;20040;-73
2021/01/29 10:50:32;;;;;;;3.40;0.88;;;24.50;37.10;;;;;;4940281;27;20059;-69
2021/01/29 10:53:11;;;;;;;2.47;1.10;;;24.50;37.50;;;;;;4947142;27;20454;-70
2021/01/29 10:55:50;;;;;;;3.42;1.13;;;24.50;37.50;;;;;;4926354;27;20092;-70
2021/01/29 10:58:46;;;;;;;7.47;1.35;;;24.50;37.50;;;;;;4941932;27;20112;-71
2021/01/29 11:01:28;;;;;;;5.32;1.20;;;24.50;37.50;;;;;;4936999;27;20222;-71
2021/01/29 11:04:03;;;;;;;2.17;0.73;;;24.50;37.70;;;;;;4938843;27;20078;-72
2021/01/29 11:06:47;;;;;;;2.28;0.90;;;24.50;37.50;;;;;;4934834;27;20044;-71
2021/01/29 11:09:23;;;;;;;2.33;1.00;;;24.60;37.50;;;;;;4940395;27;20134;-73
2021/01/29 11:12:31;;;;;;;3.72;1.20;;;24.60;37.50;;;;;;4948178;27;20047;-71
2021/01/29 11:15:18;;;;;;;3.90;0.88;;;24.70;37.50;;;;;;4929837;27;20051;-72
2021/01/29 11:17:52;;;;;;;3.65;1.02;;;24.70;37.40;;;;;;4959780;27;20078;-71
2021/01/29 11:20:41;;;;;;;5.38;1.20;;;24.80;37.50;;;;;;4946830;27;20411;-71
2021/01/29 11:23:30;;;;;;;2.67;0.90;;;24.70;37.20;;;;;;4938412;27;20043;-74
2021/01/29 11:26:13;;;;;;;2.45;0.68;;;24.70;37.20;;;;;;4950001;27;20054;-71
2021/01/29 11:29:20;;;;;;;2.13;1.00;;;24.70;37.10;;;;;;4947627;27;20051;-71
2021/01/29 11:31:46;;;;;;;3.67;1.38;;;24.70;37.20;;;;;;4933258;27;20058;-71
2021/01/29 11:34:30;;;;;;;1.88;0.82;;;24.60;37.20;;;;;;4948683;27;20053;-71
2021/01/29 11:37:16;;;;;;;3.13;1.27;;;24.60;37.00;;;;;;4946348;27;20083;-71
2021/01/29 11:40:15;;;;;;;5.55;0.90;;;24.70;37.00;;;;;;4944336;27;20058;-71
2021/01/29 11:42:54;;;;;;;3.83;1.48;;;24.60;36.50;;;;;;4936841;27;20071;-71
2021/01/29 11:45:29;;;;;;;2.00;0.88;;;24.60;37.00;;;;;;4940750;27;20214;-71
2021/01/29 11:48:08;;;;;;;2.30;1.08;;;24.60;37.00;;;;;;4953368;27;20126;-73
2021/01/29 11:50:44;;;;;;;3.70;1.20;;;24.60;37.00;;;;;;4943804;27;20048;-72
2021/01/29 11:53:33;;;;;;;3.72;0.80;;;24.60;36.60;;;;;;4941021;27;20039;-72
2021/01/29 11:56:23;;;;;;;2.67;0.90;;;24.60;36.80;;;;;;4941991;27;20047;-71
2021/01/29 11:58:51;;;;;;;5.75;1.80;;;24.60;35.90;;;;;;4937034;27;20047;-73
2021/01/29 12:01:19;;;;;;;8.93;2.10;;;24.60;36.40;;;;;;4942293;27;20067;-71
2021/01/29 12:03:57;;;;;;;4.55;2.00;;;24.50;36.40;;;;;;4938536;27;20500;-74
2021/01/29 12:06:18;;;;;;;5.75;2.05;;;24.50;36.20;;;;;;4943624;27;20050;-69
2021/01/29 12:08:57;;;;;;;5.47;1.55;;;24.60;36.00;;;;;;4943302;27;20047;-74
2021/01/29 12:11:51;;;;;;;4.45;1.80;;;24.50;35.60;;;;;;4945137;27;20431;-72
2021/01/29 12:14:45;;;;;;;5.03;1.60;;;24.50;35.70;;;;;;4940936;27;20504;-72
2021/01/29 12:17:11;;;;;;;3.35;1.15;;;24.50;35.50;;;;;;4945666;27;20212;-72
2021/01/29 12:19:38;;;;;;;6.72;2.40;;;24.50;35.90;;;;;;4941765;28;20420;-72
2021/01/29 12:22:12;;;;;;;3.53;1.50;;;24.50;37.10;;;;;;4949126;28;20074;-73
2021/01/29 12:24:57;;;;;;;3.50;1.50;;;24.60;36.30;;;;;;4952302;28;20047;-72
2021/01/29 12:27:37;;;;;;;4.93;1.25;;;24.70;36.10;;;;;;4947316;28;20048;-72
2021/01/29 12:30:05;;;;;;;;;;;24.70;36.50;;;;;;4946624;28;20043;-73
2021/01/29 12:32:29;;;;;;;5.13;1.63;;;24.70;36.50;;;;;;4948475;27;19915;-74
2021/01/29 12:35:01;;;;;;;3.60;0.90;;;24.60;36.70;;;;;;4933659;28;20084;-73
2021/01/29 12:37:34;;;;;;;3.05;1.00;;;24.60;36.60;;;;;;4953227;27;20460;-73
2021/01/29 12:40:05;;;;;;;3.45;0.90;;;24.60;36.20;;;;;;4953381;27;20691;-72
2021/01/29 12:42:39;;;;;;;;;;;24.60;36.10;;;;;;4956780;27;20235;-73
2021/01/29 12:45:07;;;;;;;6.53;1.00;;;24.60;35.70;;;;;;4950777;27;19927;-71
2021/01/29 12:47:48;;;;;;;2.35;1.00;;;24.60;36.00;;;;;;4949781;27;20051;-72
2021/01/29 12:50:28;;;;;;;5.53;0.88;;;24.60;35.20;;;;;;4946928;27;20121;-71
2021/01/29 12:52:55;;;;;;;4.95;1.00;;;24.60;35.40;;;;;;4948054;27;20063;-72
2021/01/29 12:55:24;;;;;;;4.97;1.10;;;24.60;34.80;;;;;;4952908;27;20507;-69
2021/01/29 12:58:08;;;;;;;6.32;1.13;;;24.60;34.70;;;;;;4939569;28;20079;-71
2021/01/29 13:00:39;;;;;;;4.63;1.30;;;24.60;34.90;;;;;;4941953;28;20273;-72
2021/01/29 13:03:14;;;;;;;3.88;0.82;;;24.60;34.60;;;;;;4948596;27;20062;-71
2021/01/29 13:05:48;;;;;;;1.77;0.75;;;24.60;34.60;;;;;;4957145;27;20050;-71
2021/01/29 13:08:43;;;;;;;5.70;1.00;;;24.60;34.50;;;;;;4943195;28;20057;-72
2021/01/29 13:11:34;;;;;;;3.13;1.35;;;24.60;34.70;;;;;;4903613;28;20050;-68
2021/01/29 13:14:14;;;;;;;4.55;1.48;;;24.60;34.80;;;;;;4941568;28;20104;-72
2021/01/29 13:16:45;;;;;;;8.45;1.00;;;24.60;35.20;;;;;;4945678;27;20059;-72
2021/01/29 13:19:24;;;;;;;5.10;1.20;;;24.60;35.20;;;;;;4962542;27;20055;-71
2021/01/29 13:22:17;;;;;;;6.43;1.35;;;24.60;35.10;;;;;;4963852;27;20051;-71
2021/01/29 13:24:39;;;;;;;4.20;1.33;;;24.60;35.20;;;;;;4958725;27;20108;-72
2021/01/29 13:27:13;;;;;;;7.07;1.73;;;24.60;35.30;;;;;;4948225;27;20049;-71
2021/01/29 13:29:35;;;;;;;2.78;1.00;;;24.60;35.30;;;;;;4955324;27;20134;-71
2021/01/29 13:32:23;;;;;;;7.43;1.42;;;24.50;35.50;;;;;;4941965;27;20584;-69
2021/01/29 13:34:46;;;;;;;4.90;1.50;;;24.50;35.60;;;;;;4953627;27;20039;-70
2021/01/29 13:37:30;;;;;;;2.80;1.02;;;24.50;35.80;;;;;;4956898;27;20154;-71
2021/01/29 13:40:15;;;;;;;6.10;0.80;;;24.50;35.80;;;;;;4935092;28;20452;-70